Time;durP1;ratioP1;P1;durP2;ratioP2;P2;SDS_P1;SDS_P2;PMS_P1;PMS_P2;Temp;Humidity;BMP_temperature;BMP_pressure;BME280_temperature;BME280_humidity;BME280_pressure;Samples;Min_cycle;Max_cycle;Signal;HPM_P1;HPM_P2
2021/05/21 00:00:48;;;;;;;3.23;1.70;;;10.10;99.90;;;;;;5070691;28;21129;-57
2021/05/21 00:03:14;;;;;;;2.17;1.80;;;10.10;99.90;;;;;;5071942;28;20470;-57
2021/05/21 00:05:42;;;;;;;2.00;1.90;;;10.10;99.90;;;;;;5071661;28;20447;-57
2021/05/21 00:08:10;;;;;;;1.90;1.80;;;10.10;99.90;;;;;;5071641;28;20483;-57
2021/05/21 00:10:37;;;;;;;1.73;1.63;;;10.10;99.90;;;;;;5071182;28;20534;-57
2021/05/21 00:13:03;;;;;;;1.70;1.30;;;10.10;99.90;;;;;;5071733;28;20470;-57
2021/05/21 00:15:30;;;;;;;2.53;1.53;;;10.10;99.90;;;;;;5071406;28;20455;-57
2021/05/21 00:17:56;;;;;;;1.60;1.50;;;10.10;99.90;;;;;;5071359;28;20443;-57
2021/05/21 00:20:23;;;;;;;1.63;1.50;;;10.20;99.90;;;;;;5071272;28;20447;-57
2021/05/21 00:22:50;;;;;;;1.60;1.50;;;10.20;99.90;;;;;;5071722;28;20466;-57
2021/05/21 00:25:17;;;;;;;1.93;1.50;;;10.30;99.90;;;;;;5083931;28;20450;-57
2021/05/21 00:27:43;;;;;;;1.47;1.37;;;10.30;99.90;;;;;;5091583;28;21002;-56
2021/05/21 00:30:11;;;;;;;1.57;1.43;;;10.40;99.90;;;;;;5089146;28;20503;-56
2021/05/21 00:32:38;;;;;;;1.60;1.50;;;10.50;99.90;;;;;;5091807;28;20492;-56
2021/05/21 00:35:05;;;;;;;2.77;1.33;;;10.60;99.90;;;;;;5071688;28;20454;-56
2021/05/21 00:37:32;;;;;;;1.47;1.30;;;10.60;99.90;;;;;;5071418;28;20867;-56
2021/05/21 00:39:59;;;;;;;1.20;1.10;;;10.80;99.90;;;;;;5071530;28;20512;-56
2021/05/21 00:42:25;;;;;;;4.00;1.60;;;10.80;99.90;;;;;;5071369;28;20443;-56
2021/05/21 00:44:55;;;;;;;1.30;1.20;;;10.70;99.90;;;;;;5085729;28;20450;-56
2021/05/21 00:47:22;;;;;;;2.63;1.67;;;10.60;99.90;;;;;;5091517;28;20481;-56
2021/05/21 00:49:48;;;;;;;1.70;1.60;;;10.50;99.90;;;;;;5089853;28;20450;-56
2021/05/21 00:52:17;;;;;;;2.30;1.93;;;10.50;99.90;;;;;;5083006;28;20504;-56
2021/05/21 00:54:45;;;;;;;2.00;1.70;;;10.40;99.90;;;;;;5073447;28;20478;-56
2021/05/21 00:57:12;;;;;;;1.70;1.60;;;10.40;99.90;;;;;;5074923;28;20447;-56
2021/05/21 00:59:39;;;;;;;3.20;1.80;;;10.30;99.90;;;;;;5074949;28;20447;-56
2021/05/21 01:02:08;;;;;;;1.53;1.43;;;10.40;99.90;;;;;;5075348;28;20451;-56
2021/05/21 01:04:35;;;;;;;2.43;1.47;;;10.40;99.90;;;;;;5074653;28;21117;-56
2021/05/21 01:07:02;;;;;;;1.80;1.70;;;10.40;99.90;;;;;;5082105;28;20461;-56
2021/05/21 01:09:28;;;;;;;1.60;1.50;;;10.40;99.90;;;;;;5085260;28;20449;-56
2021/05/21 01:11:55;;;;;;;1.80;1.70;;;10.30;99.90;;;;;;5094364;28;20453;-56
2021/05/21 01:14:22;;;;;;;2.93;1.70;;;10.40;99.90;;;;;;5094695;28;20461;-56
2021/05/21 01:16:49;;;;;;;1.60;1.50;;;10.30;99.90;;;;;;5095049;28;20472;-56
2021/05/21 01:19:16;;;;;;;2.00;1.60;;;10.20;99.90;;;;;;5094885;28;20446;-56
2021/05/21 01:21:43;;;;;;;3.17;1.53;;;10.20;99.90;;;;;;5081690;28;20447;-56
2021/05/21 01:24:10;;;;;;;1.60;1.50;;;10.30;99.90;;;;;;5075205;28;20865;-56
2021/05/21 01:26:37;;;;;;;1.70;1.60;;;10.30;99.90;;;;;;5074412;28;20457;-56
2021/05/21 01:29:06;;;;;;;2.03;1.80;;;10.30;99.90;;;;;;5074393;28;20482;-56
2021/05/21 01:31:33;;;;;;;1.77;1.40;;;10.30;99.90;;;;;;5085336;28;20480;-56
2021/05/21 01:34:00;;;;;;;4.80;2.23;;;10.30;99.90;;;;;;5094703;28;20466;-56
2021/05/21 01:36:27;;;;;;;1.40;1.30;;;10.30;99.90;;;;;;5089660;28;20530;-56
2021/05/21 01:38:59;;;;;;;1.73;1.40;;;10.30;99.90;;;;;;5074228;28;20443;-56
2021/05/21 01:41:26;;;;;;;1.63;1.37;;;10.40;99.90;;;;;;5073083;28;20447;-56
2021/05/21 01:43:55;;;;;;;1.50;1.40;;;10.30;99.90;;;;;;5075001;28;20493;-56
2021/05/21 01:46:21;;;;;;;1.67;1.50;;;10.30;99.90;;;;;;5074366;28;20439;-56
2021/05/21 01:48:48;;;;;;;1.60;1.30;;;10.30;99.90;;;;;;5075041;28;20907;-55
2021/05/21 01:51:15;;;;;;;2.40;1.67;;;10.30;99.90;;;;;;5074125;28;20803;-57
2021/05/21 01:53:41;;;;;;;1.60;1.50;;;10.40;99.90;;;;;;5080161;28;20471;-56
2021/05/21 01:56:09;;;;;;;1.57;1.43;;;10.30;99.90;;;;;;5073906;28;20446;-56
2021/05/21 01:58:35;;;;;;;2.20;1.60;;;10.30;99.90;;;;;;5074148;28;20821;-56
2021/05/21 02:01:03;;;;;;;2.20;1.63;;;10.30;99.90;;;;;;5073986;28;20943;-56
2021/05/21 02:03:30;;;;;;;1.30;1.20;;;10.30;99.90;;;;;;5079571;28;20489;-56
2021/05/21 02:05:57;;;;;;;1.73;1.63;;;10.30;99.90;;;;;;5093627;28;20457;-56
2021/05/21 02:08:24;;;;;;;1.93;1.70;;;10.40;99.90;;;;;;5079488;28;20478;-56
2021/05/21 02:10:51;;;;;;;1.80;1.70;;;10.40;99.90;;;;;;5074695;28;20451;-56
2021/05/21 02:13:19;;;;;;;2.30;1.80;;;10.20;99.90;;;;;;5093493;28;20473;-56
2021/05/21 02:15:45;;;;;;;2.63;1.90;;;10.10;99.90;;;;;;5093668;28;20449;-56
2021/05/21 02:18:12;;;;;;;1.70;1.60;;;10.20;99.90;;;;;;5083465;28;20453;-56
2021/05/21 02:20:39;;;;;;;1.90;1.80;;;10.20;99.90;;;;;;5073690;28;20447;-56
2021/05/21 02:23:06;;;;;;;5.13;2.40;;;10.10;99.90;;;;;;5073566;28;20574;-56
2021/05/21 02:25:33;;;;;;;1.97;1.80;;;10.40;99.90;;;;;;5073136;28;20476;-56
2021/05/21 02:28:00;;;;;;;3.33;2.13;;;10.30;99.90;;;;;;5074624;28;20475;-56
2021/05/21 02:30:27;;;;;;;2.30;1.90;;;10.20;99.90;;;;;;5073266;28;20447;-56
2021/05/21 02:32:55;;;;;;;1.80;1.70;;;10.40;99.90;;;;;;5092684;28;20470;-56
2021/05/21 02:35:21;;;;;;;2.67;2.13;;;10.40;99.90;;;;;;5093470;28;20454;-57
2021/05/21 02:37:48;;;;;;;2.40;2.00;;;10.40;99.90;;;;;;5092838;28;20450;-55
2021/05/21 02:40:15;;;;;;;2.80;2.20;;;10.30;99.90;;;;;;5092928;28;20438;-56
2021/05/21 02:42:42;;;;;;;3.80;2.00;;;10.30;99.90;;;;;;5089067;28;20562;-55
2021/05/21 02:45:09;;;;;;;1.90;1.80;;;10.30;99.90;;;;;;5072794;28;20435;-56
2021/05/21 02:47:37;;;;;;;2.40;2.20;;;10.30;99.90;;;;;;5073180;28;20565;-56
2021/05/21 02:50:06;;;;;;;2.40;2.20;;;10.40;99.90;;;;;;5073108;28;20481;-57
2021/05/21 02:52:33;;;;;;;2.83;2.50;;;10.30;99.90;;;;;;5072827;28;20467;-57
2021/05/21 02:55:00;;;;;;;3.70;3.07;;;10.30;99.90;;;;;;5072552;28;20446;-56
2021/05/21 02:57:26;;;;;;;3.50;2.30;;;10.30;99.90;;;;;;5075459;28;20442;-56
2021/05/21 02:59:54;;;;;;;1.93;1.80;;;10.20;99.90;;;;;;5080144;28;20509;-57
2021/05/21 03:02:21;;;;;;;2.00;1.70;;;10.20;99.90;;;;;;5083912;28;20936;-56
2021/05/21 03:04:49;;;;;;;2.93;1.70;;;10.20;99.90;;;;;;5072754;28;20649;-56
2021/05/21 03:07:16;;;;;;;2.27;1.97;;;10.10;99.90;;;;;;5079560;28;21025;-56
2021/05/21 03:09:42;;;;;;;1.93;1.80;;;10.20;99.90;;;;;;5085152;28;20450;-56
2021/05/21 03:12:10;;;;;;;2.13;1.93;;;10.20;99.90;;;;;;5084389;28;20443;-56
2021/05/21 03:14:37;;;;;;;1.90;1.67;;;10.20;99.90;;;;;;5079630;28;20474;-56
2021/05/21 03:17:03;;;;;;;1.90;1.63;;;10.30;99.90;;;;;;5075055;28;20454;-56
2021/05/21 03:19:30;;;;;;;1.70;1.50;;;10.20;99.90;;;;;;5076944;28;20450;-57
2021/05/21 03:21:58;;;;;;;2.07;1.97;;;10.00;99.90;;;;;;5083479;28;21009;-58
2021/05/21 03:24:25;;;;;;;2.17;1.70;;;10.10;99.90;;;;;;5084624;28;20462;-57
2021/05/21 03:26:52;;;;;;;3.43;1.47;;;10.00;99.90;;;;;;5089813;28;20454;-56
2021/05/21 03:29:18;;;;;;;1.30;1.20;;;10.10;99.90;;;;;;5080243;28;21192;-57
2021/05/21 03:31:46;;;;;;;2.13;1.53;;;10.10;99.90;;;;;;5072321;28;20503;-57
2021/05/21 03:34:13;;;;;;;1.40;1.30;;;10.20;99.90;;;;;;5081648;28;20477;-57
2021/05/21 03:36:39;;;;;;;3.23;1.30;;;10.20;99.90;;;;;;5086211;28;20446;-57
2021/05/21 03:39:10;;;;;;;1.50;1.40;;;10.20;99.90;;;;;;5091557;28;20938;-57
2021/05/21 03:41:37;;;;;;;2.50;1.20;;;10.20;99.90;;;;;;5071891;28;20542;-57
2021/05/21 03:44:05;;;;;;;1.40;1.30;;;10.20;99.90;;;;;;5072133;28;20466;-57
2021/05/21 03:46:32;;;;;;;1.90;1.27;;;10.20;99.90;;;;;;5073433;28;20451;-57
2021/05/21 03:49:01;;;;;;;1.80;1.63;;;10.30;99.90;;;;;;5071873;28;20489;-57
2021/05/21 03:51:27;;;;;;;1.23;1.10;;;10.30;99.90;;;;;;5075668;28;20454;-57
2021/05/21 03:53:55;;;;;;;1.07;0.97;;;10.60;99.90;;;;;;5078799;28;20470;-57
2021/05/21 03:56:22;;;;;;;0.80;0.80;;;10.60;99.90;;;;;;5084354;28;20943;-57
2021/05/21 03:58:50;;;;;;;2.03;1.00;;;10.80;99.90;;;;;;5084569;28;20457;-57
2021/05/21 04:01:16;;;;;;;1.53;0.90;;;10.70;99.90;;;;;;5077487;28;20466;-57
2021/05/21 04:03:43;;;;;;;1.93;1.20;;;10.70;99.90;;;;;;5080382;28;21149;-57
2021/05/21 04:06:09;;;;;;;3.37;1.37;;;10.80;99.90;;;;;;5071452;28;20462;-57
2021/05/21 04:08:36;;;;;;;1.53;1.30;;;11.00;99.90;;;;;;5080452;28;20909;-57
2021/05/21 04:11:03;;;;;;;1.33;1.23;;;11.10;99.90;;;;;;5079725;28;20447;-57
2021/05/21 04:13:30;;;;;;;1.80;1.13;;;11.00;99.90;;;;;;5086564;28;20466;-57
2021/05/21 04:15:57;;;;;;;1.20;1.10;;;11.20;99.90;;;;;;5090261;28;20450;-57
2021/05/21 04:18:23;;;;;;;1.23;1.10;;;11.10;99.90;;;;;;5071778;28;20442;-57
2021/05/21 04:20:50;;;;;;;1.90;1.10;;;11.00;99.90;;;;;;5078387;28;20486;-57
2021/05/21 04:23:16;;;;;;;1.37;1.27;;;11.00;99.90;;;;;;5086888;28;20470;-57
2021/05/21 04:25:42;;;;;;;1.00;0.90;;;10.90;99.90;;;;;;5078003;28;20454;-57
2021/05/21 04:28:10;;;;;;;0.90;0.90;;;10.90;99.90;;;;;;5071831;28;20533;-57
2021/05/21 04:30:38;;;;;;;1.17;0.83;;;10.90;99.90;;;;;;5095959;28;20450;-57
2021/05/21 04:33:05;;;;;;;3.17;0.90;;;11.00;99.90;;;;;;5081740;28;20524;-57
2021/05/21 04:35:31;;;;;;;1.20;1.00;;;11.10;99.90;;;;;;5091812;28;20504;-57
2021/05/21 04:37:58;;;;;;;1.23;0.83;;;11.20;99.90;;;;;;5085193;28;20451;-57
2021/05/21 04:40:24;;;;;;;0.80;0.80;;;11.00;99.90;;;;;;5095668;28;20532;-57
2021/05/21 04:42:51;;;;;;;0.80;0.70;;;11.00;99.90;;;;;;5094937;28;20461;-57
2021/05/21 04:45:17;;;;;;;0.80;0.80;;;11.10;99.90;;;;;;5078026;28;20443;-57
2021/05/21 04:47:45;;;;;;;1.00;0.90;;;11.30;99.90;;;;;;5075225;28;20483;-57
2021/05/21 04:50:11;;;;;;;1.63;0.80;;;11.30;99.90;;;;;;5086385;28;20446;-57
2021/05/21 04:52:38;;;;;;;1.10;1.00;;;11.30;99.90;;;;;;5093993;28;20522;-57
2021/05/21 04:55:06;;;;;;;1.20;1.10;;;11.20;99.90;;;;;;5095161;28;20976;-57
2021/05/21 04:57:32;;;;;;;1.00;1.00;;;11.20;99.90;;;;;;5095545;28;20464;-57
2021/05/21 04:59:59;;;;;;;1.20;1.10;;;11.40;99.90;;;;;;5095326;28;20825;-57
2021/05/21 05:02:25;;;;;;;2.83;1.17;;;11.50;99.90;;;;;;5083414;28;20443;-57
2021/05/21 05:04:53;;;;;;;4.23;0.97;;;11.50;99.90;;;;;;5074544;28;20802;-57
2021/05/21 05:07:19;;;;;;;1.20;0.90;;;11.40;99.90;;;;;;5081834;28;20528;-57
2021/05/21 05:09:46;;;;;;;1.03;0.93;;;11.50;99.90;;;;;;5089706;28;20955;-57
2021/05/21 05:12:12;;;;;;;1.40;0.90;;;11.40;99.90;;;;;;5080718;28;20960;-57
2021/05/21 05:14:39;;;;;;;1.10;0.90;;;11.40;99.90;;;;;;5080576;28;20859;-56
2021/05/21 05:17:05;;;;;;;1.33;1.20;;;11.30;99.90;;;;;;5094054;28;20437;-57
2021/05/21 05:19:32;;;;;;;2.60;1.07;;;11.40;99.90;;;;;;5083215;28;20461;-57
2021/05/21 05:21:59;;;;;;;1.70;1.60;;;11.50;99.90;;;;;;5094634;28;20450;-57
2021/05/21 05:24:27;;;;;;;1.53;1.20;;;11.50;99.90;;;;;;5091052;28;20970;-57
2021/05/21 05:26:54;;;;;;;1.50;1.40;;;11.50;99.90;;;;;;5080673;28;20446;-57
2021/05/21 05:29:21;;;;;;;1.93;1.30;;;11.50;99.90;;;;;;5080327;28;20482;-57
2021/05/21 05:31:47;;;;;;;1.80;1.43;;;11.60;99.90;;;;;;5075218;28;20457;-57
2021/05/21 05:34:15;;;;;;;3.70;1.83;;;11.60;99.90;;;;;;5087351;28;20524;-57
2021/05/21 05:36:42;;;;;;;6.60;2.07;;;11.70;99.90;;;;;;5094997;28;20445;-57
2021/05/21 05:39:11;;;;;;;2.30;1.60;;;11.50;99.90;;;;;;5094386;28;20525;-57
2021/05/21 05:41:37;;;;;;;3.60;1.90;;;11.60;99.90;;;;;;5084043;28;20454;-57
2021/05/21 05:44:04;;;;;;;1.67;1.40;;;11.80;99.90;;;;;;5074378;28;20470;-57
2021/05/21 05:46:31;;;;;;;2.77;1.57;;;11.80;99.90;;;;;;5074846;28;20450;-57
2021/05/21 05:48:57;;;;;;;2.70;1.00;;;12.00;99.90;;;;;;5076479;28;20478;-57
2021/05/21 05:51:24;;;;;;;2.13;1.40;;;12.00;99.90;;;;;;5092149;28;20438;-57
2021/05/21 05:53:50;;;;;;;1.20;1.10;;;11.90;99.90;;;;;;5109628;28;20466;-57
2021/05/21 05:56:18;;;;;;;1.87;1.67;;;12.10;99.90;;;;;;5099342;28;20458;-57
2021/05/21 05:58:44;;;;;;;1.60;1.40;;;12.20;99.90;;;;;;5096563;28;20960;-57
2021/05/21 06:01:10;;;;;;;6.10;3.33;;;12.30;99.90;;;;;;5093855;28;20462;-57
2021/05/21 06:03:37;;;;;;;2.10;1.30;;;12.30;99.90;;;;;;5106821;28;20474;-57
2021/05/21 06:06:04;;;;;;;1.60;1.50;;;12.50;99.90;;;;;;5090223;28;20859;-57
2021/05/21 06:08:30;;;;;;;2.80;1.90;;;12.50;99.90;;;;;;5085770;28;20483;-57
2021/05/21 06:10:57;;;;;;;1.60;1.50;;;12.30;99.90;;;;;;5094016;28;20446;-57
2021/05/21 06:13:26;;;;;;;1.40;1.30;;;12.40;99.90;;;;;;5088624;28;20482;-57
2021/05/21 06:15:53;;;;;;;2.30;1.50;;;12.30;99.90;;;;;;5087525;28;20462;-60
2021/05/21 06:18:20;;;;;;;1.60;1.37;;;12.30;99.90;;;;;;5091089;28;20443;-57
2021/05/21 06:20:47;;;;;;;2.10;1.50;;;12.30;99.90;;;;;;5091488;28;20507;-57
2021/05/21 06:23:14;;;;;;;1.63;1.40;;;12.40;99.90;;;;;;5085869;28;20527;-57
2021/05/21 06:28:23;;;;;;;3.37;1.67;;;12.80;99.90;;;;;;5083489;28;20477;-57
2021/05/21 06:30:50;;;;;;;4.00;1.50;;;12.80;99.90;;;;;;5089240;28;20506;-57
2021/05/21 06:33:17;;;;;;;1.03;0.93;;;12.90;99.90;;;;;;5086668;28;20477;-57
2021/05/21 06:35:44;;;;;;;1.43;1.00;;;12.90;99.90;;;;;;5089645;28;20454;-57
2021/05/21 06:38:10;;;;;;;1.57;0.80;;;12.90;99.90;;;;;;5113101;28;20449;-57
2021/05/21 06:40:37;;;;;;;1.13;0.80;;;12.90;99.90;;;;;;5093273;28;20951;-57
2021/05/21 06:43:13;;;;;;;0.70;0.60;;;12.90;99.90;;;;;;5092748;28;20840;-57
2021/05/21 06:45:40;;;;;;;1.43;1.00;;;12.90;99.90;;;;;;5082682;28;20462;-57
2021/05/21 06:48:08;;;;;;;1.50;0.83;;;13.00;99.90;;;;;;5092842;28;20500;-57
2021/05/21 06:50:35;;;;;;;2.50;0.90;;;13.00;99.90;;;;;;5095008;28;20446;-57
2021/05/21 06:53:01;;;;;;;1.70;1.00;;;13.10;99.90;;;;;;5102723;22;20467;-50
2021/05/21 06:55:28;;;;;;;3.17;0.80;;;13.20;99.90;;;;;;5030637;28;20473;-50
2021/05/21 06:57:55;;;;;;;2.53;1.00;;;13.10;99.90;;;;;;5014843;28;20438;-50
2021/05/21 07:00:22;;;;;;;1.10;1.00;;;13.20;99.90;;;;;;5032629;28;20217;-49
2021/05/21 07:02:48;;;;;;;1.00;0.90;;;13.20;99.90;;;;;;5032352;28;20803;-49
2021/05/21 07:05:16;;;;;;;1.63;1.10;;;13.20;99.90;;;;;;5013662;28;20472;-50
2021/05/21 07:07:43;;;;;;;2.10;1.67;;;13.30;99.90;;;;;;5011651;28;20489;-49
2021/05/21 07:10:10;;;;;;;4.00;1.50;;;13.40;99.90;;;;;;5021729;28;20454;-50
2021/05/21 07:12:37;;;;;;;3.60;2.43;;;13.60;99.90;;;;;;5028889;28;20466;-50
2021/05/21 07:15:05;;;;;;;4.40;2.90;;;13.50;99.90;;;;;;5016116;28;20994;-50
2021/05/21 07:17:31;;;;;;;2.70;1.10;;;13.50;99.90;;;;;;5012486;28;20457;-50
2021/05/21 07:19:58;;;;;;;1.30;1.10;;;13.30;99.90;;;;;;5012170;28;20462;-50
2021/05/21 07:22:25;;;;;;;6.77;1.30;;;13.30;99.90;;;;;;5012330;28;20457;-50
2021/05/21 07:24:51;;;;;;;5.23;2.00;;;13.30;99.90;;;;;;5011729;28;20480;-51
2021/05/21 07:27:18;;;;;;;2.60;1.73;;;13.30;99.90;;;;;;5013523;28;20473;-50
2021/05/21 07:29:44;;;;;;;3.37;1.37;;;13.20;99.90;;;;;;5012270;28;20489;-50
2021/05/21 07:32:11;;;;;;;2.23;1.03;;;13.20;99.90;;;;;;5012200;28;20504;-50
2021/05/21 07:34:38;;;;;;;5.43;1.53;;;13.10;99.90;;;;;;5011020;28;20539;-50
2021/05/21 07:37:04;;;;;;;1.40;1.20;;;13.20;99.90;;;;;;5011866;28;20446;-50
2021/05/21 07:39:32;;;;;;;2.50;1.50;;;13.10;99.90;;;;;;5012364;28;20456;-51
2021/05/21 07:41:58;;;;;;;1.60;1.50;;;13.00;99.90;;;;;;5013120;28;20457;-50
2021/05/21 07:44:26;;;;;;;2.33;1.33;;;13.20;99.90;;;;;;5011977;28;20507;-50
2021/05/21 07:46:52;;;;;;;1.43;1.10;;;13.30;99.90;;;;;;5012249;28;20454;-50
2021/05/21 07:49:24;;;;;;;1.90;1.10;;;13.30;99.90;;;;;;5011975;28;20485;-50
2021/05/21 07:51:51;;;;;;;6.73;1.50;;;13.30;99.90;;;;;;5012327;28;20450;-51
2021/05/21 07:54:18;;;;;;;4.30;1.80;;;13.30;99.90;;;;;;5011683;28;20481;-50
2021/05/21 07:56:45;;;;;;;4.00;1.20;;;13.30;99.90;;;;;;5012295;28;20445;-50
2021/05/21 07:59:13;;;;;;;1.53;1.23;;;13.30;99.90;;;;;;5017034;28;20885;-50
2021/05/21 08:01:39;;;;;;;1.83;0.90;;;13.20;99.90;;;;;;5031753;28;20819;-50
2021/05/21 08:04:06;;;;;;;2.20;1.10;;;13.30;99.90;;;;;;5031511;28;20468;-50
2021/05/21 08:06:34;;;;;;;1.20;1.00;;;13.50;99.90;;;;;;5031744;28;20449;-50
2021/05/21 08:09:03;;;;;;;1.37;1.07;;;13.70;99.90;;;;;;5031525;28;20484;-50
2021/05/21 08:11:29;;;;;;;1.20;0.90;;;13.90;99.90;;;;;;5031761;28;20938;-50
2021/05/21 08:13:57;;;;;;;2.90;0.87;;;14.00;99.90;;;;;;5031740;28;20476;-50
2021/05/21 08:16:23;;;;;;;1.17;0.80;;;14.10;99.90;;;;;;5021634;28;20445;-50
2021/05/21 08:18:50;;;;;;;1.37;0.80;;;14.20;99.90;;;;;;5012067;28;20521;-50
2021/05/21 08:21:16;;;;;;;3.83;1.00;;;14.20;99.90;;;;;;5012018;28;20532;-50
2021/05/21 08:23:43;;;;;;;1.23;0.80;;;14.10;99.90;;;;;;5012016;28;20466;-50
2021/05/21 08:26:11;;;;;;;1.77;0.93;;;14.20;99.90;;;;;;5011618;28;21110;-50
2021/05/21 08:28:37;;;;;;;0.70;0.70;;;14.00;99.90;;;;;;5011760;28;20485;-51
2021/05/21 08:31:05;;;;;;;1.00;0.90;;;13.90;99.90;;;;;;5011437;28;20939;-51
2021/05/21 08:33:32;;;;;;;2.03;1.00;;;13.90;99.90;;;;;;5012894;28;20477;-50
2021/05/21 08:35:58;;;;;;;2.40;0.90;;;13.80;99.90;;;;;;5011694;28;20453;-50
2021/05/21 08:38:25;;;;;;;2.20;1.10;;;13.80;99.90;;;;;;5011861;28;20452;-50
2021/05/21 08:40:52;;;;;;;1.37;0.70;;;13.80;99.90;;;;;;5011753;28;20496;-51
2021/05/21 08:43:18;;;;;;;1.57;0.80;;;13.80;99.90;;;;;;5011604;28;20892;-51
2021/05/21 08:45:45;;;;;;;1.57;0.70;;;13.90;99.90;;;;;;5011337;28;20453;-50
2021/05/21 08:48:17;;;;;;;1.20;0.90;;;13.90;99.90;;;;;;5011703;28;20481;-50
2021/05/21 08:50:44;;;;;;;1.63;1.53;;;14.10;99.90;;;;;;5029551;28;20583;-51
2021/05/21 08:53:10;;;;;;;1.47;0.87;;;14.30;99.90;;;;;;5031018;28;20453;-51
2021/05/21 08:55:37;;;;;;;1.73;0.97;;;14.40;99.90;;;;;;5031132;28;20460;-51
2021/05/21 08:58:03;;;;;;;4.90;1.00;;;14.40;99.90;;;;;;5031171;28;20507;-51
2021/05/21 09:00:30;;;;;;;3.07;1.40;;;14.40;99.90;;;;;;5030735;28;20539;-50
2021/05/21 09:02:56;;;;;;;1.43;1.10;;;14.40;99.90;;;;;;5031309;28;20448;-51
2021/05/21 09:05:23;;;;;;;1.20;1.10;;;14.60;99.90;;;;;;5028489;28;20457;-51
2021/05/21 09:07:50;;;;;;;1.00;1.00;;;14.50;99.90;;;;;;5011393;28;21004;-51
2021/05/21 09:10:18;;;;;;;2.43;1.40;;;14.40;99.90;;;;;;5011426;28;20950;-50
2021/05/21 09:12:46;;;;;;;3.70;1.33;;;13.90;99.90;;;;;;5011407;28;20533;-50
2021/05/21 09:15:17;;;;;;;2.40;1.60;;;13.70;99.90;;;;;;5012759;28;20512;-50
2021/05/21 09:17:55;;;;;;;1.80;1.67;;;13.70;99.90;;;;;;5015002;28;20456;-50
2021/05/21 09:20:24;;;;;;;2.20;1.37;;;13.80;99.90;;;;;;5015054;28;20449;-50
2021/05/21 09:23:06;;;;;;;2.30;1.20;;;13.80;99.90;;;;;;5016011;28;20457;-50
2021/05/21 09:25:40;;;;;;;3.20;1.33;;;14.00;99.90;;;;;;5014443;28;20449;-50
2021/05/21 09:28:07;;;;;;;1.83;1.30;;;14.10;99.90;;;;;;5014893;28;20535;-50
2021/05/21 09:30:34;;;;;;;5.23;2.13;;;14.00;99.90;;;;;;5014826;28;20820;-50
2021/05/21 09:33:04;;;;;;;2.03;1.53;;;13.80;99.90;;;;;;5014716;28;20450;-50
2021/05/21 09:35:32;;;;;;;1.80;1.53;;;13.60;99.90;;;;;;5014425;28;20456;-50
2021/05/21 09:37:59;;;;;;;2.03;1.80;;;13.30;99.90;;;;;;5014519;28;20449;-50
2021/05/21 09:40:27;;;;;;;2.33;1.57;;;13.10;99.90;;;;;;5015548;28;20449;-50
2021/05/21 09:42:58;;;;;;;4.50;1.70;;;13.10;99.90;;;;;;5014654;28;20450;-51
2021/05/21 09:45:30;;;;;;;2.87;2.00;;;13.40;99.90;;;;;;5014282;28;20466;-51
2021/05/21 09:48:02;;;;;;;2.30;1.40;;;13.40;99.90;;;;;;5014351;28;20484;-51
2021/05/21 09:50:38;;;;;;;2.30;2.10;;;13.50;99.90;;;;;;5014275;28;20456;-50
2021/05/21 09:53:10;;;;;;;2.30;1.77;;;13.30;99.90;;;;;;5014368;28;20445;-51
2021/05/21 09:55:41;;;;;;;2.53;2.27;;;13.40;99.90;;;;;;5013710;28;20449;-51
2021/05/21 09:58:08;;;;;;;4.53;2.05;;;13.40;99.90;;;;;;5011360;28;20451;-51
2021/05/21 10:00:35;;;;;;;8.60;2.27;;;13.50;99.90;;;;;;5013487;28;20226;-51
2021/05/21 10:03:03;;;;;;;5.00;2.17;;;13.80;99.90;;;;;;5013712;28;20457;-51
2021/05/21 10:05:30;;;;;;;2.20;2.00;;;14.10;99.90;;;;;;5013534;28;20969;-51
2021/05/21 10:07:58;;;;;;;2.23;2.13;;;14.40;99.90;;;;;;5013716;28;20950;-51
2021/05/21 10:10:25;;;;;;;2.20;2.00;;;14.60;99.90;;;;;;5026377;28;20456;-51
2021/05/21 10:12:53;;;;;;;2.30;2.10;;;14.60;99.90;;;;;;5021114;28;20503;-51
2021/05/21 10:15:20;;;;;;;3.40;2.37;;;14.50;99.90;;;;;;5013547;28;20454;-51
2021/05/21 10:17:50;;;;;;;2.47;2.27;;;14.40;99.90;;;;;;5013800;28;20456;-51
2021/05/21 10:20:19;;;;;;;2.00;1.90;;;14.20;99.90;;;;;;5013679;28;20536;-52
2021/05/21 10:22:46;;;;;;;2.03;1.83;;;14.00;99.90;;;;;;5012793;28;20503;-50
2021/05/21 10:25:20;;;;;;;4.10;2.27;;;14.10;99.90;;;;;;5012843;28;20866;-51
2021/05/21 10:27:50;;;;;;;2.40;1.83;;;14.30;99.90;;;;;;5013516;28;20449;-51
2021/05/21 10:30:20;;;;;;;3.60;1.80;;;14.40;99.90;;;;;;5014436;28;20516;-51
2021/05/21 10:32:46;;;;;;;2.53;1.70;;;14.60;99.90;;;;;;5014912;28;20449;-51
2021/05/21 10:35:19;;;;;;;2.73;1.80;;;14.70;99.90;;;;;;5012743;28;20481;-51
2021/05/21 10:37:47;;;;;;;1.83;1.63;;;14.70;99.90;;;;;;5012847;28;20537;-51
2021/05/21 10:40:23;;;;;;;4.80;1.40;;;14.80;99.90;;;;;;5012871;28;20460;-51
2021/05/21 10:42:52;;;;;;;2.60;1.10;;;14.90;99.90;;;;;;5018084;28;20505;-50
2021/05/21 10:45:20;;;;;;;2.67;1.33;;;14.60;99.90;;;;;;5032468;28;20473;-50
2021/05/21 10:47:48;;;;;;;1.40;1.10;;;14.60;99.90;;;;;;5025926;28;20527;-51
2021/05/21 10:50:18;;;;;;;1.93;1.40;;;14.30;99.90;;;;;;5012940;28;20453;-51
2021/05/21 10:53:05;;;;;;;1.20;1.10;;;14.00;99.90;;;;;;5013185;28;20458;-51
2021/05/21 10:55:46;;;;;;;1.00;1.00;;;14.00;99.90;;;;;;5012607;28;20453;-51
2021/05/21 10:58:29;;;;;;;2.00;0.90;;;13.80;99.90;;;;;;5012257;28;20450;-51
2021/05/21 11:01:16;;;;;;;1.40;1.17;;;13.80;99.90;;;;;;5028778;28;20456;-50
2021/05/21 11:04:08;;;;;;;0.70;0.70;;;13.40;99.90;;;;;;5032518;28;20464;-51
2021/05/21 11:06:49;;;;;;;0.83;0.83;;;13.50;99.90;;;;;;5032433;28;20459;-51
2021/05/21 11:09:17;;;;;;;1.10;1.00;;;13.60;99.90;;;;;;5013270;28;20477;-51
2021/05/21 11:12:05;;;;;;;1.50;0.83;;;13.50;99.90;;;;;;5012607;28;20504;-51
2021/05/21 11:14:35;;;;;;;1.00;0.87;;;13.40;99.90;;;;;;5012386;28;20474;-50
2021/05/21 11:17:16;;;;;;;1.10;1.00;;;13.50;99.90;;;;;;5026263;28;20519;-51
2021/05/21 11:19:48;;;;;;;1.20;1.10;;;13.50;99.90;;;;;;5009696;28;20449;-51
2021/05/21 11:22:35;;;;;;;2.60;1.63;;;13.70;99.90;;;;;;5012492;28;20506;-51
2021/05/21 11:25:04;;;;;;;1.40;1.30;;;13.90;99.90;;;;;;5012280;28;20469;-52
2021/05/21 11:27:34;;;;;;;3.47;1.43;;;14.00;99.90;;;;;;5011930;28;20492;-52
2021/05/21 11:30:05;;;;;;;1.50;1.40;;;14.10;99.90;;;;;;5012049;28;20485;-51
2021/05/21 11:32:32;;;;;;;1.40;1.30;;;14.20;99.90;;;;;;5013320;28;20540;-51
2021/05/21 11:34:58;;;;;;;2.00;1.40;;;14.10;99.90;;;;;;5012129;28;20470;-51
2021/05/21 11:37:27;;;;;;;3.77;1.30;;;13.90;99.90;;;;;;5011575;28;20453;-51
2021/05/21 11:39:55;;;;;;;1.40;1.30;;;14.10;99.90;;;;;;5012148;28;20457;-51
2021/05/21 11:42:22;;;;;;;1.47;1.10;;;14.10;99.90;;;;;;5011967;28;20489;-51
2021/05/21 11:44:53;;;;;;;2.03;1.80;;;14.40;99.90;;;;;;5011989;28;20469;-51
2021/05/21 11:47:25;;;;;;;2.83;1.77;;;14.40;99.90;;;;;;5011815;28;20465;-51
2021/05/21 11:49:52;;;;;;;1.60;1.40;;;14.50;99.90;;;;;;5013021;28;20488;-51
2021/05/21 11:52:19;;;;;;;1.40;1.30;;;14.60;99.90;;;;;;5012038;28;20460;-51
2021/05/21 11:54:45;;;;;;;1.60;1.47;;;14.40;99.90;;;;;;5011653;28;20507;-51
2021/05/21 11:57:16;;;;;;;1.90;1.70;;;14.30;99.90;;;;;;5011740;28;20449;-51
2021/05/21 11:59:43;;;;;;;2.30;1.87;;;14.20;99.90;;;;;;5012015;28;20462;-51
2021/05/21 12:02:13;;;;;;;2.70;1.60;;;14.10;99.90;;;;;;5011933;28;20943;-51
2021/05/21 12:04:41;;;;;;;3.20;1.80;;;14.00;99.90;;;;;;5012821;28;20478;-51
2021/05/21 12:07:17;;;;;;;1.97;1.87;;;13.80;99.90;;;;;;5029209;28;20527;-51
2021/05/21 12:09:52;;;;;;;1.97;1.50;;;13.80;99.90;;;;;;5011313;28;20480;-51
2021/05/21 12:12:21;;;;;;;1.90;1.70;;;13.90;99.90;;;;;;5010998;28;20449;-51
2021/05/21 12:14:47;;;;;;;2.37;1.80;;;14.00;99.90;;;;;;5000611;28;20907;-51
2021/05/21 12:17:15;;;;;;;2.70;1.70;;;14.00;99.90;;;;;;5011671;28;20962;-51
2021/05/21 12:19:42;;;;;;;2.27;1.57;;;14.30;99.90;;;;;;5011734;28;20472;-51
2021/05/21 12:22:09;;;;;;;2.40;1.80;;;14.50;99.90;;;;;;5021833;28;20535;-51
2021/05/21 12:24:40;;;;;;;1.70;1.60;;;14.50;99.90;;;;;;4991742;28;20474;-51
2021/05/21 12:27:06;;;;;;;2.30;1.70;;;14.70;99.90;;;;;;4991955;28;20982;-51
2021/05/21 12:29:33;;;;;;;1.50;1.40;;;14.80;99.90;;;;;;4992125;28;20486;-51
2021/05/21 12:32:02;;;;;;;1.70;1.60;;;15.00;99.90;;;;;;5008561;28;20535;-51
2021/05/21 12:34:30;;;;;;;2.27;1.77;;;14.90;99.90;;;;;;5011230;28;20566;-51
2021/05/21 12:36:58;;;;;;;2.10;1.90;;;15.00;99.90;;;;;;5011751;28;20815;-51
2021/05/21 12:39:31;;;;;;;1.97;1.60;;;14.90;99.90;;;;;;5024232;28;20869;-51
2021/05/21 12:41:57;;;;;;;2.43;1.60;;;15.00;99.90;;;;;;5031530;28;20551;-51
2021/05/21 12:44:24;;;;;;;1.53;1.43;;;15.10;99.90;;;;;;5030796;28;20895;-51
2021/05/21 12:46:52;;;;;;;1.93;1.83;;;14.90;99.90;;;;;;5031073;28;20452;-51
2021/05/21 12:49:24;;;;;;;1.77;1.67;;;14.70;99.90;;;;;;5031217;28;20871;-51
2021/05/21 12:51:53;;;;;;;1.53;1.43;;;14.80;99.90;;;;;;5030182;28;20454;-51
2021/05/21 12:54:22;;;;;;;1.90;1.80;;;14.60;99.90;;;;;;5014853;28;20489;-51